sensor_id;sensor_type;location;lat;lon;timestamp;temperature;humidity
75155;HTU21D;63735;44.730;37.818;2023-02-03T00:02:01;2.91;78.93
75155;HTU21D;63735;44.730;37.818;2023-02-03T00:04:27;2.87;78.92
75155;HTU21D;63735;44.730;37.818;2023-02-03T00:06:53;2.83;78.88
75155;HTU21D;63735;44.730;37.818;2023-02-03T00:09:20;2.78;78.86
75155;HTU21D;63735;44.730;37.818;2023-02-03T00:11:46;2.69;78.86
75155;HTU21D;63735;44.730;37.818;2023-02-03T00:14:12;2.55;78.92
75155;HTU21D;63735;44.730;37.818;2023-02-03T00:16:38;2.41;79.05
75155;HTU21D;63735;44.730;37.818;2023-02-03T00:19:04;2.34;79.15
75155;HTU21D;63735;44.730;37.818;2023-02-03T00:21:30;2.28;79.20
75155;HTU21D;63735;44.730;37.818;2023-02-03T00:23:56;2.14;79.22
75155;HTU21D;63735;44.730;37.818;2023-02-03T00:26:22;2.00;79.38
75155;HTU21D;63735;44.730;37.818;2023-02-03T00:28:50;1.91;79.56
75155;HTU21D;63735;44.730;37.818;2023-02-03T00:31:18;1.84;79.66
75155;HTU21D;63735;44.730;37.818;2023-02-03T00:33:45;1.85;79.68
75155;HTU21D;63735;44.730;37.818;2023-02-03T00:36:11;1.90;79.56
75155;HTU21D;63735;44.730;37.818;2023-02-03T00:38:38;1.93;79.47
75155;HTU21D;63735;44.730;37.818;2023-02-03T00:41:04;1.92;79.38
75155;HTU21D;63735;44.730;37.818;2023-02-03T00:43:30;1.88;79.40
75155;HTU21D;63735;44.730;37.818;2023-02-03T00:45:56;1.82;79.45
75155;HTU21D;63735;44.730;37.818;2023-02-03T00:48:22;1.77;79.51
75155;HTU21D;63735;44.730;37.818;2023-02-03T00:50:48;1.76;79.55
75155;HTU21D;63735;44.730;37.818;2023-02-03T00:53:14;1.72;79.53
75155;HTU21D;63735;44.730;37.818;2023-02-03T00:55:41;1.67;79.59
75155;HTU21D;63735;44.730;37.818;2023-02-03T00:58:07;1.57;79.70
75155;HTU21D;63735;44.730;37.818;2023-02-03T01:00:33;1.49;79.92
75155;HTU21D;63735;44.730;37.818;2023-02-03T01:02:59;1.42;80.06
75155;HTU21D;63735;44.730;37.818;2023-02-03T01:05:25;1.37;80.23
75155;HTU21D;63735;44.730;37.818;2023-02-03T01:07:51;1.34;80.34
75155;HTU21D;63735;44.730;37.818;2023-02-03T01:10:17;1.34;80.34
75155;HTU21D;63735;44.730;37.818;2023-02-03T01:12:43;1.36;80.28
75155;HTU21D;63735;44.730;37.818;2023-02-03T01:15:09;1.37;80.24
75155;HTU21D;63735;44.730;37.818;2023-02-03T01:17:36;1.38;80.23
75155;HTU21D;63735;44.730;37.818;2023-02-03T01:20:02;1.46;80.07
75155;HTU21D;63735;44.730;37.818;2023-02-03T01:22:29;1.49;80.01
75155;HTU21D;63735;44.730;37.818;2023-02-03T01:24:55;1.49;80.02
75155;HTU21D;63735;44.730;37.818;2023-02-03T01:27:22;1.48;80.05
75155;HTU21D;63735;44.730;37.818;2023-02-03T01:29:48;1.45;80.08
75155;HTU21D;63735;44.730;37.818;2023-02-03T01:32:14;1.41;80.13
75155;HTU21D;63735;44.730;37.818;2023-02-03T01:34:40;1.36;80.26
75155;HTU21D;63735;44.730;37.818;2023-02-03T01:37:06;1.27;80.50
75155;HTU21D;63735;44.730;37.818;2023-02-03T01:39:31;1.21;80.65
75155;HTU21D;63735;44.730;37.818;2023-02-03T01:41:59;1.21;80.75
75155;HTU21D;63735;44.730;37.818;2023-02-03T01:44:48;1.21;80.91
75155;HTU21D;63735;44.730;37.818;2023-02-03T01:49:57;1.24;80.80
75155;HTU21D;63735;44.730;37.818;2023-02-03T01:52:24;1.25;80.59
75155;HTU21D;63735;44.730;37.818;2023-02-03T01:54:53;1.29;80.62
75155;HTU21D;63735;44.730;37.818;2023-02-03T01:57:28;1.39;80.51
75155;HTU21D;63735;44.730;37.818;2023-02-03T01:59:57;1.45;80.33
75155;HTU21D;63735;44.730;37.818;2023-02-03T02:02:26;1.51;80.24
75155;HTU21D;63735;44.730;37.818;2023-02-03T02:05:05;1.58;80.20
75155;HTU21D;63735;44.730;37.818;2023-02-03T02:07:32;1.61;80.08
75155;HTU21D;63735;44.730;37.818;2023-02-03T02:09:59;1.64;80.07
75155;HTU21D;63735;44.730;37.818;2023-02-03T02:12:26;1.66;80.08
75155;HTU21D;63735;44.730;37.818;2023-02-03T02:14:52;1.66;80.11
75155;HTU21D;63735;44.730;37.818;2023-02-03T02:41:57;1.69;80.09
75155;HTU21D;63735;44.730;37.818;2023-02-03T02:44:34;1.66;80.25
75155;HTU21D;63735;44.730;37.818;2023-02-03T02:47:05;1.64;80.33
75155;HTU21D;63735;44.730;37.818;2023-02-03T02:49:43;1.62;80.39
75155;HTU21D;63735;44.730;37.818;2023-02-03T02:52:13;1.60;80.47
75155;HTU21D;63735;44.730;37.818;2023-02-03T02:54:44;1.62;80.52
75155;HTU21D;63735;44.730;37.818;2023-02-03T02:57:13;1.66;80.52
75155;HTU21D;63735;44.730;37.818;2023-02-03T02:59:41;1.72;80.42
75155;HTU21D;63735;44.730;37.818;2023-02-03T03:02:09;1.79;80.37
75155;HTU21D;63735;44.730;37.818;2023-02-03T03:04:38;1.87;80.25
75155;HTU21D;63735;44.730;37.818;2023-02-03T03:07:12;1.92;80.13
75155;HTU21D;63735;44.730;37.818;2023-02-03T03:09:49;1.96;80.07
75155;HTU21D;63735;44.730;37.818;2023-02-03T03:12:24;2.02;79.95
75155;HTU21D;63735;44.730;37.818;2023-02-03T03:14:59;2.09;79.85
75155;HTU21D;63735;44.730;37.818;2023-02-03T03:20:24;2.10;79.79
75155;HTU21D;63735;44.730;37.818;2023-02-03T03:23:01;2.11;79.82
75155;HTU21D;63735;44.730;37.818;2023-02-03T03:25:34;2.09;79.81
75155;HTU21D;63735;44.730;37.818;2023-02-03T03:28:06;2.05;79.83
75155;HTU21D;63735;44.730;37.818;2023-02-03T03:30:35;2.02;79.90
75155;HTU21D;63735;44.730;37.818;2023-02-03T03:33:02;2.00;79.93
75155;HTU21D;63735;44.730;37.818;2023-02-03T03:36:00;1.98;80.02
75155;HTU21D;63735;44.730;37.818;2023-02-03T03:38:29;1.86;80.24
75155;HTU21D;63735;44.730;37.818;2023-02-03T03:43:52;1.79;80.98
75155;HTU21D;63735;44.730;37.818;2023-02-03T03:46:26;1.82;80.93
75155;HTU21D;63735;44.730;37.818;2023-02-03T03:48:59;1.85;80.83
75155;HTU21D;63735;44.730;37.818;2023-02-03T03:51:34;1.87;80.80
75155;HTU21D;63735;44.730;37.818;2023-02-03T03:54:06;1.93;80.72
75155;HTU21D;63735;44.730;37.818;2023-02-03T03:56:51;1.95;80.77
75155;HTU21D;63735;44.730;37.818;2023-02-03T03:59:20;1.99;80.79
75155;HTU21D;63735;44.730;37.818;2023-02-03T04:01:48;2.07;80.81
75155;HTU21D;63735;44.730;37.818;2023-02-03T04:04:15;2.15;80.73
75155;HTU21D;63735;44.730;37.818;2023-02-03T04:06:42;2.20;80.65
75155;HTU21D;63735;44.730;37.818;2023-02-03T04:09:08;2.21;80.65
75155;HTU21D;63735;44.730;37.818;2023-02-03T04:11:34;2.24;80.71
75155;HTU21D;63735;44.730;37.818;2023-02-03T04:14:19;2.29;80.72
75155;HTU21D;63735;44.730;37.818;2023-02-03T04:16:44;2.30;80.78
75155;HTU21D;63735;44.730;37.818;2023-02-03T04:19:10;2.35;80.82
75155;HTU21D;63735;44.730;37.818;2023-02-03T04:21:36;2.44;80.82
75155;HTU21D;63735;44.730;37.818;2023-02-03T04:24:02;2.53;80.79
75155;HTU21D;63735;44.730;37.818;2023-02-03T04:26:28;2.64;80.72
75155;HTU21D;63735;44.730;37.818;2023-02-03T04:28:54;2.75;80.60
75155;HTU21D;63735;44.730;37.818;2023-02-03T04:31:20;2.82;80.46
75155;HTU21D;63735;44.730;37.818;2023-02-03T04:33:46;2.86;80.40
75155;HTU21D;63735;44.730;37.818;2023-02-03T04:36:12;2.88;80.28
75155;HTU21D;63735;44.730;37.818;2023-02-03T04:38:38;2.89;80.24
75155;HTU21D;63735;44.730;37.818;2023-02-03T04:41:04;2.91;80.24
75155;HTU21D;63735;44.730;37.818;2023-02-03T04:43:30;2.96;80.18
75155;HTU21D;63735;44.730;37.818;2023-02-03T04:45:58;3.00;80.12
75155;HTU21D;63735;44.730;37.818;2023-02-03T04:48:24;3.00;80.11
75155;HTU21D;63735;44.730;37.818;2023-02-03T04:50:50;2.89;80.14
75155;HTU21D;63735;44.730;37.818;2023-02-03T04:53:16;2.84;80.28
75155;HTU21D;63735;44.730;37.818;2023-02-03T04:55:45;2.82;80.35
75155;HTU21D;63735;44.730;37.818;2023-02-03T04:58:12;2.80;80.39
75155;HTU21D;63735;44.730;37.818;2023-02-03T05:00:38;2.81;80.46
75155;HTU21D;63735;44.730;37.818;2023-02-03T05:03:04;2.84;80.42
75155;HTU21D;63735;44.730;37.818;2023-02-03T05:05:30;2.88;80.30
75155;HTU21D;63735;44.730;37.818;2023-02-03T05:07:55;2.90;80.26
75155;HTU21D;63735;44.730;37.818;2023-02-03T05:10:21;2.94;80.23
75155;HTU21D;63735;44.730;37.818;2023-02-03T05:12:47;2.99;80.18
75155;HTU21D;63735;44.730;37.818;2023-02-03T05:15:13;3.05;80.13
75155;HTU21D;63735;44.730;37.818;2023-02-03T05:17:39;3.08;80.09
75155;HTU21D;63735;44.730;37.818;2023-02-03T05:20:06;3.08;80.20
75155;HTU21D;63735;44.730;37.818;2023-02-03T05:22:32;3.12;80.26
75155;HTU21D;63735;44.730;37.818;2023-02-03T05:25:01;3.17;80.20
75155;HTU21D;63735;44.730;37.818;2023-02-03T05:27:26;3.24;80.23
75155;HTU21D;63735;44.730;37.818;2023-02-03T05:29:52;3.32;80.22
75155;HTU21D;63735;44.730;37.818;2023-02-03T05:32:18;3.48;80.08
75155;HTU21D;63735;44.730;37.818;2023-02-03T05:34:44;3.59;79.86
75155;HTU21D;63735;44.730;37.818;2023-02-03T05:37:11;3.69;79.79
75155;HTU21D;63735;44.730;37.818;2023-02-03T05:39:36;3.83;79.71
75155;HTU21D;63735;44.730;37.818;2023-02-03T05:42:02;3.97;79.59
75155;HTU21D;63735;44.730;37.818;2023-02-03T05:44:29;4.12;79.49
75155;HTU21D;63735;44.730;37.818;2023-02-03T05:46:57;4.24;79.35
75155;HTU21D;63735;44.730;37.818;2023-02-03T05:49:24;4.36;79.24
75155;HTU21D;63735;44.730;37.818;2023-02-03T05:51:51;4.49;79.14
75155;HTU21D;63735;44.730;37.818;2023-02-03T05:54:17;4.58;79.04
75155;HTU21D;63735;44.730;37.818;2023-02-03T05:56:47;4.68;79.02
75155;HTU21D;63735;44.730;37.818;2023-02-03T05:59:17;4.79;78.96
75155;HTU21D;63735;44.730;37.818;2023-02-03T06:01:43;4.92;78.91
75155;HTU21D;63735;44.730;37.818;2023-02-03T06:04:09;5.00;78.82
75155;HTU21D;63735;44.730;37.818;2023-02-03T06:06:34;5.08;78.77
75155;HTU21D;63735;44.730;37.818;2023-02-03T06:09:03;5.16;78.69
75155;HTU21D;63735;44.730;37.818;2023-02-03T06:11:29;5.21;78.59
75155;HTU21D;63735;44.730;37.818;2023-02-03T06:13:56;5.19;78.49
75155;HTU21D;63735;44.730;37.818;2023-02-03T06:16:26;5.21;78.53
75155;HTU21D;63735;44.730;37.818;2023-02-03T06:18:54;5.28;78.56
75155;HTU21D;63735;44.730;37.818;2023-02-03T06:21:24;5.37;78.46
75155;HTU21D;63735;44.730;37.818;2023-02-03T06:23:50;5.45;78.36
75155;HTU21D;63735;44.730;37.818;2023-02-03T06:26:15;5.54;78.22
75155;HTU21D;63735;44.730;37.818;2023-02-03T06:28:41;5.62;78.11
75155;HTU21D;63735;44.730;37.818;2023-02-03T06:31:07;5.67;77.98
75155;HTU21D;63735;44.730;37.818;2023-02-03T06:33:33;5.70;77.89
75155;HTU21D;63735;44.730;37.818;2023-02-03T06:35:59;5.74;77.86
75155;HTU21D;63735;44.730;37.818;2023-02-03T06:38:25;5.76;77.80
75155;HTU21D;63735;44.730;37.818;2023-02-03T06:40:51;5.79;77.76
75155;HTU21D;63735;44.730;37.818;2023-02-03T06:43:17;5.82;77.75
75155;HTU21D;63735;44.730;37.818;2023-02-03T06:45:46;5.90;77.63
75155;HTU21D;63735;44.730;37.818;2023-02-03T06:48:12;5.94;77.48
75155;HTU21D;63735;44.730;37.818;2023-02-03T06:50:39;5.99;77.37
75155;HTU21D;63735;44.730;37.818;2023-02-03T06:53:05;6.01;77.27
75155;HTU21D;63735;44.730;37.818;2023-02-03T06:55:31;6.02;77.19
75155;HTU21D;63735;44.730;37.818;2023-02-03T06:57:57;6.06;77.09
75155;HTU21D;63735;44.730;37.818;2023-02-03T07:00:23;6.06;77.04
75155;HTU21D;63735;44.730;37.818;2023-02-03T07:02:53;6.09;76.98
75155;HTU21D;63735;44.730;37.818;2023-02-03T07:05:20;6.13;76.91
75155;HTU21D;63735;44.730;37.818;2023-02-03T07:07:46;6.16;76.82
75155;HTU21D;63735;44.730;37.818;2023-02-03T07:10:12;6.19;76.79
75155;HTU21D;63735;44.730;37.818;2023-02-03T07:12:38;6.22;76.70
75155;HTU21D;63735;44.730;37.818;2023-02-03T07:15:04;6.26;76.61
75155;HTU21D;63735;44.730;37.818;2023-02-03T07:17:30;6.34;76.47
75155;HTU21D;63735;44.730;37.818;2023-02-03T07:19:56;6.42;76.32
75155;HTU21D;63735;44.730;37.818;2023-02-03T07:22:22;6.46;76.18
75155;HTU21D;63735;44.730;37.818;2023-02-03T07:24:48;6.54;76.01
75155;HTU21D;63735;44.730;37.818;2023-02-03T07:27:14;6.58;75.89
75155;HTU21D;63735;44.730;37.818;2023-02-03T07:29:40;6.58;75.87
75155;HTU21D;63735;44.730;37.818;2023-02-03T07:32:06;6.57;75.90
75155;HTU21D;63735;44.730;37.818;2023-02-03T07:34:32;6.60;75.92
75155;HTU21D;63735;44.730;37.818;2023-02-03T07:36:58;6.59;75.88
75155;HTU21D;63735;44.730;37.818;2023-02-03T07:39:24;6.55;75.84
75155;HTU21D;63735;44.730;37.818;2023-02-03T07:41:50;6.50;75.94
75155;HTU21D;63735;44.730;37.818;2023-02-03T07:44:16;6.49;75.98
75155;HTU21D;63735;44.730;37.818;2023-02-03T07:46:42;6.50;75.99
75155;HTU21D;63735;44.730;37.818;2023-02-03T07:49:10;6.51;75.92
75155;HTU21D;63735;44.730;37.818;2023-02-03T07:51:36;6.52;75.92
75155;HTU21D;63735;44.730;37.818;2023-02-03T07:54:02;6.52;75.91
75155;HTU21D;63735;44.730;37.818;2023-02-03T07:56:29;6.51;75.86
75155;HTU21D;63735;44.730;37.818;2023-02-03T07:59:00;6.51;75.82
75155;HTU21D;63735;44.730;37.818;2023-02-03T08:01:27;6.52;75.80
75155;HTU21D;63735;44.730;37.818;2023-02-03T08:03:53;6.53;75.76
75155;HTU21D;63735;44.730;37.818;2023-02-03T08:06:19;6.57;75.75
75155;HTU21D;63735;44.730;37.818;2023-02-03T08:08:46;6.64;75.69
75155;HTU21D;63735;44.730;37.818;2023-02-03T08:11:11;6.76;75.34
75155;HTU21D;63735;44.730;37.818;2023-02-03T08:13:37;6.87;74.96
75155;HTU21D;63735;44.730;37.818;2023-02-03T08:16:03;6.95;74.38
75155;HTU21D;63735;44.730;37.818;2023-02-03T08:18:29;7.02;74.15
75155;HTU21D;63735;44.730;37.818;2023-02-03T08:20:55;7.07;74.12
75155;HTU21D;63735;44.730;37.818;2023-02-03T08:23:21;7.11;74.02
75155;HTU21D;63735;44.730;37.818;2023-02-03T08:25:51;7.12;74.05
75155;HTU21D;63735;44.730;37.818;2023-02-03T08:28:18;7.14;74.07
75155;HTU21D;63735;44.730;37.818;2023-02-03T08:30:44;7.16;74.03
75155;HTU21D;63735;44.730;37.818;2023-02-03T08:33:10;7.07;73.95
75155;HTU21D;63735;44.730;37.818;2023-02-03T08:35:36;6.95;74.42
75155;HTU21D;63735;44.730;37.818;2023-02-03T08:38:01;6.70;74.94
75155;HTU21D;63735;44.730;37.818;2023-02-03T08:40:28;6.26;76.66
75155;HTU21D;63735;44.730;37.818;2023-02-03T08:42:54;6.05;77.89
75155;HTU21D;63735;44.730;37.818;2023-02-03T08:45:19;6.00;78.20
75155;HTU21D;63735;44.730;37.818;2023-02-03T08:47:45;6.05;78.33
75155;HTU21D;63735;44.730;37.818;2023-02-03T08:50:11;6.16;78.53
75155;HTU21D;63735;44.730;37.818;2023-02-03T08:52:38;6.37;78.45
75155;HTU21D;63735;44.730;37.818;2023-02-03T08:55:04;6.57;78.27
75155;HTU21D;63735;44.730;37.818;2023-02-03T08:57:32;6.74;78.20
75155;HTU21D;63735;44.730;37.818;2023-02-03T08:59:58;6.87;77.69
75155;HTU21D;63735;44.730;37.818;2023-02-03T09:02:24;7.03;77.50
75155;HTU21D;63735;44.730;37.818;2023-02-03T09:04:50;7.15;77.27
75155;HTU21D;63735;44.730;37.818;2023-02-03T09:07:17;7.17;75.89
75155;HTU21D;63735;44.730;37.818;2023-02-03T09:09:46;6.99;75.44
75155;HTU21D;63735;44.730;37.818;2023-02-03T09:12:18;6.71;75.58
75155;HTU21D;63735;44.730;37.818;2023-02-03T09:14:44;5.90;76.63
75155;HTU21D;63735;44.730;37.818;2023-02-03T09:17:11;5.24;77.94
75155;HTU21D;63735;44.730;37.818;2023-02-03T09:19:37;4.89;79.17
75155;HTU21D;63735;44.730;37.818;2023-02-03T09:22:03;4.68;80.00
75155;HTU21D;63735;44.730;37.818;2023-02-03T09:24:29;4.62;80.52
75155;HTU21D;63735;44.730;37.818;2023-02-03T09:26:56;4.58;81.21
75155;HTU21D;63735;44.730;37.818;2023-02-03T09:29:22;4.60;81.62
75155;HTU21D;63735;44.730;37.818;2023-02-03T09:31:48;4.59;81.81
75155;HTU21D;63735;44.730;37.818;2023-02-03T09:34:18;4.59;81.91
75155;HTU21D;63735;44.730;37.818;2023-02-03T09:36:44;4.52;82.06
75155;HTU21D;63735;44.730;37.818;2023-02-03T09:39:10;4.46;82.15
75155;HTU21D;63735;44.730;37.818;2023-02-03T09:46:50;4.38;81.96
75155;HTU21D;63735;44.730;37.818;2023-02-03T09:49:32;4.35;82.16
75155;HTU21D;63735;44.730;37.818;2023-02-03T09:57:24;4.34;82.95
75155;HTU21D;63735;44.730;37.818;2023-02-03T09:59:53;4.41;82.99
75155;HTU21D;63735;44.730;37.818;2023-02-03T10:05:50;4.43;83.16
75155;HTU21D;63735;44.730;37.818;2023-02-03T10:18:23;4.60;82.71
75155;HTU21D;63735;44.730;37.818;2023-02-03T10:20:53;4.67;82.75
75155;HTU21D;63735;44.730;37.818;2023-02-03T10:23:27;4.77;82.81
75155;HTU21D;63735;44.730;37.818;2023-02-03T10:25:55;4.91;83.29
75155;HTU21D;63735;44.730;37.818;2023-02-03T10:28:28;5.15;83.51
75155;HTU21D;63735;44.730;37.818;2023-02-03T10:30:56;5.35;83.49
75155;HTU21D;63735;44.730;37.818;2023-02-03T10:33:26;5.49;83.61
75155;HTU21D;63735;44.730;37.818;2023-02-03T10:41:04;5.69;83.44
75155;HTU21D;63735;44.730;37.818;2023-02-03T10:43:31;5.75;83.41
75155;HTU21D;63735;44.730;37.818;2023-02-03T10:46:33;5.75;83.37
75155;HTU21D;63735;44.730;37.818;2023-02-03T10:49:00;5.68;83.37
75155;HTU21D;63735;44.730;37.818;2023-02-03T10:51:50;5.64;83.69
75155;HTU21D;63735;44.730;37.818;2023-02-03T10:54:33;5.63;83.81
75155;HTU21D;63735;44.730;37.818;2023-02-03T10:57:11;5.48;83.94
75155;HTU21D;63735;44.730;37.818;2023-02-03T10:59:44;5.38;84.06
75155;HTU21D;63735;44.730;37.818;2023-02-03T11:02:25;5.30;84.27
75155;HTU21D;63735;44.730;37.818;2023-02-03T11:07:42;5.35;84.48
75155;HTU21D;63735;44.730;37.818;2023-02-03T11:13:22;5.49;84.52
75155;HTU21D;63735;44.730;37.818;2023-02-03T11:15:57;5.63;84.40
75155;HTU21D;63735;44.730;37.818;2023-02-03T11:21:28;5.89;83.81
75155;HTU21D;63735;44.730;37.818;2023-02-03T11:24:30;5.99;83.55
75155;HTU21D;63735;44.730;37.818;2023-02-03T11:26:56;6.11;83.45
75155;HTU21D;63735;44.730;37.818;2023-02-03T11:29:42;6.22;83.42
75155;HTU21D;63735;44.730;37.818;2023-02-03T11:35:01;6.40;83.36
75155;HTU21D;63735;44.730;37.818;2023-02-03T11:42:34;6.67;83.17
75155;HTU21D;63735;44.730;37.818;2023-02-03T11:47:54;6.87;82.45
75155;HTU21D;63735;44.730;37.818;2023-02-03T11:53:13;6.97;82.08
75155;HTU21D;63735;44.730;37.818;2023-02-03T12:01:13;7.03;81.94
75155;HTU21D;63735;44.730;37.818;2023-02-03T12:09:37;7.20;81.91
75155;HTU21D;63735;44.730;37.818;2023-02-03T12:15:05;7.43;80.82
75155;HTU21D;63735;44.730;37.818;2023-02-03T12:20:40;7.54;79.72
75155;HTU21D;63735;44.730;37.818;2023-02-03T12:26:49;7.42;78.34
75155;HTU21D;63735;44.730;37.818;2023-02-03T12:35:11;6.75;76.78
75155;HTU21D;63735;44.730;37.818;2023-02-03T12:40:05;6.39;76.41
75155;HTU21D;63735;44.730;37.818;2023-02-03T12:42:45;6.26;76.76
75155;HTU21D;63735;44.730;37.818;2023-02-03T12:45:22;6.24;77.05
75155;HTU21D;63735;44.730;37.818;2023-02-03T12:47:57;6.30;77.21
75155;HTU21D;63735;44.730;37.818;2023-02-03T12:50:37;6.41;77.21
75155;HTU21D;63735;44.730;37.818;2023-02-03T12:53:28;6.57;76.94
75155;HTU21D;63735;44.730;37.818;2023-02-03T12:56:11;6.65;76.92
75155;HTU21D;63735;44.730;37.818;2023-02-03T13:02:40;6.76;76.87
75155;HTU21D;63735;44.730;37.818;2023-02-03T13:04:34;6.87;76.86
75155;HTU21D;63735;44.730;37.818;2023-02-03T13:07:03;6.96;76.94
75155;HTU21D;63735;44.730;37.818;2023-02-03T13:09:46;7.09;76.69
75155;HTU21D;63735;44.730;37.818;2023-02-03T13:15:21;7.20;76.24
75155;HTU21D;63735;44.730;37.818;2023-02-03T13:17:56;6.93;76.13
75155;HTU21D;63735;44.730;37.818;2023-02-03T13:20:26;6.52;76.88
75155;HTU21D;63735;44.730;37.818;2023-02-03T13:22:53;6.21;77.63
75155;HTU21D;63735;44.730;37.818;2023-02-03T13:28:27;5.71;78.70
75155;HTU21D;63735;44.730;37.818;2023-02-03T13:31:17;5.50;79.21
75155;HTU21D;63735;44.730;37.818;2023-02-03T13:37:07;5.38;79.56
75155;HTU21D;63735;44.730;37.818;2023-02-03T13:39:58;5.38;79.53
75155;HTU21D;63735;44.730;37.818;2023-02-03T13:42:27;5.40;79.49
75155;HTU21D;63735;44.730;37.818;2023-02-03T13:45:25;5.39;79.45
75155;HTU21D;63735;44.730;37.818;2023-02-03T13:47:53;5.42;79.40
75155;HTU21D;63735;44.730;37.818;2023-02-03T13:50:25;5.40;79.37
75155;HTU21D;63735;44.730;37.818;2023-02-03T13:52:53;5.41;79.38
75155;HTU21D;63735;44.730;37.818;2023-02-03T13:55:34;5.47;79.31
75155;HTU21D;63735;44.730;37.818;2023-02-03T13:58:01;5.50;79.20
75155;HTU21D;63735;44.730;37.818;2023-02-03T14:03:41;5.55;79.22
75155;HTU21D;63735;44.730;37.818;2023-02-03T14:12:18;5.74;79.07
75155;HTU21D;63735;44.730;37.818;2023-02-03T14:20:02;5.94;78.02
75155;HTU21D;63735;44.730;37.818;2023-02-03T14:22:28;5.97;77.98
75155;HTU21D;63735;44.730;37.818;2023-02-03T14:24:57;5.99;78.04
75155;HTU21D;63735;44.730;37.818;2023-02-03T14:27:29;6.05;78.10
75155;HTU21D;63735;44.730;37.818;2023-02-03T14:32:57;6.10;78.25
75155;HTU21D;63735;44.730;37.818;2023-02-03T14:35:31;6.14;78.30
75155;HTU21D;63735;44.730;37.818;2023-02-03T14:38:05;6.26;78.43
75155;HTU21D;63735;44.730;37.818;2023-02-03T14:41:00;6.39;78.53
75155;HTU21D;63735;44.730;37.818;2023-02-03T14:43:49;6.42;78.19
75155;HTU21D;63735;44.730;37.818;2023-02-03T14:51:59;5.92;78.50
75155;HTU21D;63735;44.730;37.818;2023-02-03T14:54:48;5.83;78.51
75155;HTU21D;63735;44.730;37.818;2023-02-03T14:57:14;5.80;78.53
75155;HTU21D;63735;44.730;37.818;2023-02-03T15:02:22;5.81;78.47
75155;HTU21D;63735;44.730;37.818;2023-02-03T15:05:38;5.78;78.47
75155;HTU21D;63735;44.730;37.818;2023-02-03T15:07:47;5.74;78.55
75155;HTU21D;63735;44.730;37.818;2023-02-03T15:10:26;5.72;78.57
75155;HTU21D;63735;44.730;37.818;2023-02-03T15:12:56;5.80;78.85
75155;HTU21D;63735;44.730;37.818;2023-02-03T15:15:26;6.07;79.01
75155;HTU21D;63735;44.730;37.818;2023-02-03T15:17:58;6.29;78.71
75155;HTU21D;63735;44.730;37.818;2023-02-03T15:20:39;6.46;78.60
75155;HTU21D;63735;44.730;37.818;2023-02-03T15:23:25;6.52;78.39
75155;HTU21D;63735;44.730;37.818;2023-02-03T15:25:57;6.27;78.19
75155;HTU21D;63735;44.730;37.818;2023-02-03T15:28:28;6.19;78.69
75155;HTU21D;63735;44.730;37.818;2023-02-03T15:31:29;6.17;78.86
75155;HTU21D;63735;44.730;37.818;2023-02-03T15:34:10;6.24;78.72
75155;HTU21D;63735;44.730;37.818;2023-02-03T15:36:41;6.35;78.38
75155;HTU21D;63735;44.730;37.818;2023-02-03T15:39:36;6.41;77.91
75155;HTU21D;63735;44.730;37.818;2023-02-03T15:42:06;6.20;77.52
75155;HTU21D;63735;44.730;37.818;2023-02-03T15:44:42;5.97;77.76
75155;HTU21D;63735;44.730;37.818;2023-02-03T15:47:34;5.80;78.10
75155;HTU21D;63735;44.730;37.818;2023-02-03T15:50:28;5.72;78.34
75155;HTU21D;63735;44.730;37.818;2023-02-03T15:53:01;5.70;78.47
75155;HTU21D;63735;44.730;37.818;2023-02-03T15:55:31;5.62;78.56
75155;HTU21D;63735;44.730;37.818;2023-02-03T15:57:59;5.46;78.85
75155;HTU21D;63735;44.730;37.818;2023-02-03T16:00:37;5.23;79.20
75155;HTU21D;63735;44.730;37.818;2023-02-03T16:03:24;5.06;79.47
75155;HTU21D;63735;44.730;37.818;2023-02-03T16:05:52;4.95;79.64
75155;HTU21D;63735;44.730;37.818;2023-02-03T16:10:58;4.93;79.70
75155;HTU21D;63735;44.730;37.818;2023-02-03T16:13:26;4.95;79.65
75155;HTU21D;63735;44.730;37.818;2023-02-03T16:16:13;4.97;79.78
75155;HTU21D;63735;44.730;37.818;2023-02-03T16:18:40;4.98;79.84
75155;HTU21D;63735;44.730;37.818;2023-02-03T16:21:29;5.00;79.93
75155;HTU21D;63735;44.730;37.818;2023-02-03T16:24:01;5.01;79.95
75155;HTU21D;63735;44.730;37.818;2023-02-03T16:26:30;5.05;80.08
75155;HTU21D;63735;44.730;37.818;2023-02-03T16:31:47;5.15;80.27
75155;HTU21D;63735;44.730;37.818;2023-02-03T16:34:32;5.16;80.27
75155;HTU21D;63735;44.730;37.818;2023-02-03T16:37:34;5.19;80.40
75155;HTU21D;63735;44.730;37.818;2023-02-03T16:40:26;5.30;80.54
75155;HTU21D;63735;44.730;37.818;2023-02-03T16:43:12;5.37;80.53
75155;HTU21D;63735;44.730;37.818;2023-02-03T16:45:58;5.47;80.50
75155;HTU21D;63735;44.730;37.818;2023-02-03T16:48:43;5.50;80.43
75155;HTU21D;63735;44.730;37.818;2023-02-03T16:51:34;5.49;80.43
75155;HTU21D;63735;44.730;37.818;2023-02-03T16:54:02;5.48;80.50
75155;HTU21D;63735;44.730;37.818;2023-02-03T16:56:28;5.50;80.52
75155;HTU21D;63735;44.730;37.818;2023-02-03T16:58:54;5.51;80.44
75155;HTU21D;63735;44.730;37.818;2023-02-03T17:01:20;5.55;80.18
75155;HTU21D;63735;44.730;37.818;2023-02-03T17:03:46;5.53;80.05
75155;HTU21D;63735;44.730;37.818;2023-02-03T17:06:13;5.52;80.00
75155;HTU21D;63735;44.730;37.818;2023-02-03T17:08:41;5.52;79.98
75155;HTU21D;63735;44.730;37.818;2023-02-03T17:11:14;5.52;79.95
75155;HTU21D;63735;44.730;37.818;2023-02-03T17:13:41;5.50;79.89
75155;HTU21D;63735;44.730;37.818;2023-02-03T17:16:21;5.48;79.98
75155;HTU21D;63735;44.730;37.818;2023-02-03T17:18:48;5.48;79.96
75155;HTU21D;63735;44.730;37.818;2023-02-03T17:21:21;5.50;79.92
75155;HTU21D;63735;44.730;37.818;2023-02-03T17:23:51;5.51;79.91
75155;HTU21D;63735;44.730;37.818;2023-02-03T17:26:20;5.50;79.90
75155;HTU21D;63735;44.730;37.818;2023-02-03T17:28:46;5.48;79.97
75155;HTU21D;63735;44.730;37.818;2023-02-03T17:31:15;5.46;80.04
75155;HTU21D;63735;44.730;37.818;2023-02-03T17:33:41;5.45;80.07
75155;HTU21D;63735;44.730;37.818;2023-02-03T17:36:13;5.39;80.17
75155;HTU21D;63735;44.730;37.818;2023-02-03T17:38:42;5.32;80.29
75155;HTU21D;63735;44.730;37.818;2023-02-03T17:41:14;5.28;80.52
75155;HTU21D;63735;44.730;37.818;2023-02-03T17:43:41;5.32;80.49
75155;HTU21D;63735;44.730;37.818;2023-02-03T17:46:08;5.32;80.49
75155;HTU21D;63735;44.730;37.818;2023-02-03T17:48:35;5.34;80.49
75155;HTU21D;63735;44.730;37.818;2023-02-03T17:51:09;5.38;80.46
75155;HTU21D;63735;44.730;37.818;2023-02-03T17:53:36;5.42;80.39
75155;HTU21D;63735;44.730;37.818;2023-02-03T17:56:11;5.48;80.36
75155;HTU21D;63735;44.730;37.818;2023-02-03T17:58:39;5.52;80.38
75155;HTU21D;63735;44.730;37.818;2023-02-03T18:01:16;5.62;80.31
75155;HTU21D;63735;44.730;37.818;2023-02-03T18:03:47;5.70;80.19
75155;HTU21D;63735;44.730;37.818;2023-02-03T18:06:14;5.79;80.09
75155;HTU21D;63735;44.730;37.818;2023-02-03T18:08:41;5.85;79.99
75155;HTU21D;63735;44.730;37.818;2023-02-03T18:11:08;5.90;79.92
75155;HTU21D;63735;44.730;37.818;2023-02-03T18:13:39;5.92;79.91